createdAt,value
2022-09-07T00:00:09.459Z,95662.91
2022-09-07T00:02:36.285Z,95653.28
2022-09-07T00:05:03.476Z,95653.88
2022-09-07T00:07:33.155Z,95648.22
2022-09-07T00:10:00.217Z,95645.31
2022-09-07T00:12:26.862Z,95647.38
2022-09-07T00:14:53.597Z,95634.13
2022-09-07T00:17:20.402Z,95633.09
2022-09-07T00:19:47.043Z,95625.72
2022-09-07T00:22:13.635Z,95637.19
2022-09-07T00:24:40.314Z,95636.75
2022-09-07T00:27:06.973Z,95632.28
2022-09-07T00:29:33.630Z,95633.97
2022-09-07T00:32:00.194Z,95620.00
2022-09-07T00:34:26.787Z,95623.13
2022-09-07T00:36:53.402Z,95616.50
2022-09-07T00:39:19.982Z,95614.22
2022-09-07T00:41:46.678Z,95616.38
2022-09-07T00:44:44.219Z,95617.09
2022-09-07T00:47:23.342Z,95611.66
2022-09-07T00:49:54.548Z,95602.44
2022-09-07T00:52:23.060Z,95600.75
2022-09-07T00:54:56.534Z,95601.47
2022-09-07T00:57:23.279Z,95597.59
2022-09-07T00:59:53.378Z,95594.34
2022-09-07T01:02:20.674Z,95607.22
2022-09-07T01:04:53.293Z,95604.94
2022-09-07T01:07:20.063Z,95605.09
2022-09-07T01:09:47.323Z,95613.50
2022-09-07T01:12:14.730Z,95606.50
2022-09-07T01:14:45.200Z,95611.34
2022-09-07T01:17:23.999Z,95607.50
2022-09-07T01:20:36.521Z,95604.09
2022-09-07T01:23:25.113Z,95613.75
2022-09-07T01:26:19.612Z,95612.75
2022-09-07T01:28:51.795Z,95604.47
2022-09-07T01:31:24.435Z,95610.59
2022-09-07T01:34:25.081Z,95616.28
2022-09-07T01:37:07.829Z,95610.63
2022-09-07T01:40:15.299Z,95612.75
2022-09-07T01:43:00.795Z,95615.19
2022-09-07T01:45:31.737Z,95616.63
2022-09-07T01:48:04.092Z,95616.50
2022-09-07T01:50:33.725Z,95615.19
2022-09-07T01:53:22.486Z,95625.03
2022-09-07T01:55:58.660Z,95625.66
2022-09-07T01:58:29.633Z,95630.44
2022-09-07T02:01:14.185Z,95625.28
2022-09-07T02:03:52.596Z,95623.94
2022-09-07T02:06:45.543Z,95624.56
2022-09-07T02:09:26.195Z,95629.38
2022-09-07T02:11:53.728Z,95631.03
2022-09-07T02:14:26.043Z,95624.69
2022-09-07T02:17:05.411Z,95633.94
2022-09-07T02:19:38.941Z,95639.94
2022-09-07T02:22:11.655Z,95645.00
2022-09-07T02:24:42.885Z,95648.41
2022-09-07T02:27:15.084Z,95647.22
2022-09-07T02:29:43.649Z,95654.19
2022-09-07T02:32:10.327Z,95647.19
2022-09-07T02:34:37.243Z,95650.06
2022-09-07T02:37:06.409Z,95647.06
2022-09-07T02:39:35.007Z,95641.22
2022-09-07T02:42:01.994Z,95643.25
2022-09-07T02:44:32.633Z,95645.50
2022-09-07T02:47:02.401Z,95649.97
2022-09-07T02:50:10.831Z,95643.09
2022-09-07T02:52:51.660Z,95645.28
2022-09-07T02:55:33.290Z,95641.53
2022-09-07T02:58:18.373Z,95648.50
2022-09-07T03:01:01.682Z,95648.81
2022-09-07T03:04:02.462Z,95641.41
2022-09-07T03:06:40.806Z,95631.75
2022-09-07T03:09:12.677Z,95638.00
2022-09-07T03:11:39.364Z,95638.69
2022-09-07T03:14:21.268Z,95640.69
2022-09-07T03:16:51.193Z,95641.34
2022-09-07T03:19:18.569Z,95645.34
2022-09-07T03:21:45.496Z,95642.13
2022-09-07T03:24:12.259Z,95642.59
2022-09-07T03:26:46.397Z,95643.09
2022-09-07T03:29:13.513Z,95645.47
2022-09-07T03:31:40.429Z,95648.75
2022-09-07T03:34:07.378Z,95660.56
2022-09-07T03:36:34.868Z,95656.94
2022-09-07T03:39:02.528Z,95663.44
2022-09-07T03:41:29.735Z,95662.22
2022-09-07T03:43:56.894Z,95663.09
2022-09-07T03:46:23.977Z,95669.94
2022-09-07T03:48:51.307Z,95664.28
2022-09-07T03:51:19.915Z,95676.09
2022-09-07T03:53:47.179Z,95669.59
2022-09-07T03:56:18.368Z,95669.31
2022-09-07T03:58:46.434Z,95667.31
2022-09-07T04:01:16.525Z,95669.72
2022-09-07T04:03:44.727Z,95674.19
2022-09-07T04:06:12.525Z,95678.97
2022-09-07T04:08:41.728Z,95678.34
2022-09-07T04:11:12.893Z,95684.50
2022-09-07T04:13:41.058Z,95675.00
2022-09-07T04:16:17.563Z,95681.03
2022-09-07T04:21:13.413Z,95676.63
2022-09-07T04:23:41.996Z,95687.94
2022-09-07T04:26:21.479Z,95697.16
2022-09-07T04:28:49.578Z,95694.00
2022-09-07T04:31:18.250Z,95700.44
2022-09-07T04:33:46.875Z,95701.94
2022-09-07T04:36:15.423Z,95706.81
2022-09-07T04:38:47.373Z,95695.75
2022-09-07T04:41:19.641Z,95697.44
2022-09-07T04:43:49.349Z,95690.13
2022-09-07T04:46:25.516Z,95687.94
2022-09-07T04:49:04.622Z,95688.13
2022-09-07T04:51:44.934Z,95682.66
2022-09-07T04:54:18.815Z,95682.81
2022-09-07T04:56:46.751Z,95680.00
2022-09-07T04:59:17.060Z,95677.00
2022-09-07T05:01:45.101Z,95679.47
2022-09-07T05:04:15.290Z,95676.63
2022-09-07T05:06:52.786Z,95672.72
2022-09-07T05:09:23.155Z,95669.09
2022-09-07T05:11:50.568Z,95685.09
2022-09-07T05:14:17.871Z,95678.75
2022-09-07T05:16:45.030Z,95685.25
2022-09-07T05:19:13.558Z,95681.03
2022-09-07T05:21:40.631Z,95685.03
2022-09-07T05:24:07.891Z,95692.19
2022-09-07T05:26:36.997Z,95694.59
2022-09-07T05:31:59.068Z,95687.00
2022-09-07T05:36:54.600Z,95694.47
2022-09-07T05:39:21.766Z,95696.88
2022-09-07T05:41:48.871Z,95698.69
2022-09-07T05:47:03.258Z,95697.00
2022-09-07T05:49:30.882Z,95697.75
2022-09-07T05:51:58.422Z,95693.47
2022-09-07T05:54:25.614Z,95699.13
2022-09-07T05:56:53.082Z,95702.94
2022-09-07T05:59:19.967Z,95707.41
2022-09-07T06:01:46.824Z,95697.75
2022-09-07T06:04:13.674Z,95701.91
2022-09-07T06:06:54.640Z,95698.22
2022-09-07T06:09:31.489Z,95700.59
2022-09-07T06:11:58.513Z,95689.63
2022-09-07T06:14:25.651Z,95698.22
2022-09-07T06:17:02.792Z,95699.03
2022-09-07T06:19:35.720Z,95694.56
2022-09-07T06:22:06.106Z,95689.59
2022-09-07T06:24:38.619Z,95685.97
2022-09-07T06:27:06.457Z,95698.66
2022-09-07T06:29:35.819Z,95700.94
2022-09-07T06:38:31.889Z,95707.53
2022-09-07T06:43:58.039Z,95711.00
2022-09-07T06:49:14.092Z,95707.56
2022-09-07T06:51:45.222Z,95702.13
2022-09-07T06:57:20.779Z,95711.06
2022-09-07T07:00:35.389Z,95705.84
2022-09-07T07:03:05.842Z,95705.34
2022-09-07T07:05:44.227Z,95705.69
2022-09-07T07:08:18.590Z,95720.28
2022-09-07T07:10:58.369Z,95732.91
2022-09-07T07:13:44.878Z,95719.91
2022-09-07T07:16:17.571Z,95719.16
2022-09-07T07:18:59.833Z,95720.84
2022-09-07T07:21:43.038Z,95728.44
2022-09-07T07:24:58.358Z,95734.06
2022-09-07T07:31:32.660Z,95735.03
2022-09-07T07:34:11.642Z,95747.56
2022-09-07T07:37:11.045Z,95748.19
2022-09-07T07:42:43.089Z,95747.31
2022-09-07T07:55:01.792Z,95752.69
2022-09-07T07:57:58.916Z,95751.50
2022-09-07T08:00:50.736Z,95753.84
2022-09-07T08:09:47.441Z,95756.94
2022-09-07T08:12:42.532Z,95751.69
2022-09-07T08:21:22.260Z,95753.41
2022-09-07T08:24:02.935Z,95760.25
2022-09-07T08:26:34.458Z,95758.50
2022-09-07T08:29:08.181Z,95766.50
2022-09-07T08:32:02.067Z,95757.16
2022-09-07T08:34:48.787Z,95756.91
2022-09-07T08:37:33.570Z,95755.78
2022-09-07T08:40:15.545Z,95758.44
2022-09-07T08:42:55.992Z,95769.31
2022-09-07T08:45:30.329Z,95768.44
2022-09-07T08:48:35.453Z,95757.72
2022-09-07T08:51:35.170Z,95767.88
2022-09-07T08:54:31.699Z,95755.44
2022-09-07T08:57:42.975Z,95762.38
2022-09-07T09:00:17.819Z,95757.66
2022-09-07T09:03:28.638Z,95755.94
2022-09-07T09:05:50.791Z,95762.22
2022-09-07T09:08:23.825Z,95769.06
2022-09-07T09:12:38.002Z,95768.53
2022-09-07T09:15:42.660Z,95766.22
2022-09-07T09:18:37.859Z,95761.19
2022-09-07T09:21:21.060Z,95757.69
2022-09-07T09:24:08.371Z,95752.63
2022-09-07T09:26:40.795Z,95752.38
2022-09-07T09:33:38.364Z,95737.59
2022-09-07T09:36:32.054Z,95736.47
2022-09-07T09:39:25.116Z,95739.25
2022-09-07T09:42:21.055Z,95743.34
2022-09-07T09:44:48.437Z,95743.47
2022-09-07T09:47:46.481Z,95736.31
2022-09-07T09:53:35.899Z,95756.94
2022-09-07T09:56:05.713Z,95746.16
2022-09-07T10:04:37.668Z,95723.28
2022-09-07T10:07:21.792Z,95726.09
2022-09-07T10:09:59.390Z,95723.81
2022-09-07T10:12:37.001Z,95715.38
2022-09-07T10:15:27.238Z,95719.84
2022-09-07T10:17:55.019Z,95708.22
2022-09-07T10:20:30.900Z,95702.78
2022-09-07T10:22:59.563Z,95697.81
2022-09-07T10:25:41.784Z,95693.03
2022-09-07T10:28:16.318Z,95707.44
2022-09-07T10:31:12.318Z,95706.25
2022-09-07T10:37:08.939Z,95702.91
2022-09-07T10:39:43.234Z,95699.72
2022-09-07T10:42:29.318Z,95704.03
2022-09-07T10:45:12.632Z,95698.69
2022-09-07T10:48:06.990Z,95700.16
2022-09-07T10:51:14.022Z,95694.69
2022-09-07T10:54:32.651Z,95696.56
2022-09-07T10:57:49.466Z,95685.00
2022-09-07T11:01:04.213Z,95689.59
2022-09-07T11:04:21.758Z,95686.19
2022-09-07T11:06:58.190Z,95676.19
2022-09-07T11:10:09.677Z,95671.56
2022-09-07T11:12:42.190Z,95672.09
2022-09-07T11:15:12.863Z,95659.22
2022-09-07T11:17:55.491Z,95660.84
2022-09-07T11:20:35.876Z,95659.41
2022-09-07T11:23:07.370Z,95660.00
2022-09-07T11:25:52.174Z,95649.19
2022-09-07T11:28:34.333Z,95644.81
2022-09-07T11:31:18.138Z,95639.94
2022-09-07T11:34:26.787Z,95634.56
2022-09-07T11:37:20.480Z,95629.66
2022-09-07T11:40:33.496Z,95625.69
2022-09-07T11:43:22.429Z,95636.19
2022-09-07T11:45:56.962Z,95639.63
2022-09-07T11:48:53.200Z,95613.81
2022-09-07T11:54:45.156Z,95605.06
2022-09-07T11:57:15.527Z,95612.13
2022-09-07T12:00:02.321Z,95611.75
2022-09-07T12:03:38.752Z,95605.16
2022-09-07T12:06:37.511Z,95606.38
2022-09-07T12:09:30.598Z,95604.59
2022-09-07T12:12:33.193Z,95609.31
2022-09-07T12:15:40.746Z,95614.75
2022-09-07T12:18:26.001Z,95598.38
2022-09-07T12:20:59.975Z,95612.44
2022-09-07T12:23:34.296Z,95607.06
2022-09-07T12:26:33.761Z,95593.94
2022-09-07T12:29:00.405Z,95599.09
2022-09-07T12:31:59.314Z,95596.66
2022-09-07T12:34:34.908Z,95590.16
2022-09-07T12:37:12.613Z,95592.59
2022-09-07T12:39:47.599Z,95592.22
2022-09-07T12:42:37.330Z,95593.47
2022-09-07T12:45:40.078Z,95589.34
2022-09-07T12:48:51.076Z,95594.50
2022-09-07T12:55:16.428Z,95591.13
2022-09-07T12:58:21.194Z,95581.47
2022-09-07T13:00:50.236Z,95580.59
2022-09-07T13:09:36.094Z,95573.16
2022-09-07T13:15:41.062Z,95569.47
2022-09-07T13:18:31.776Z,95559.44
2022-09-07T13:21:08.743Z,95560.13
2022-09-07T13:23:38.306Z,95549.06
2022-09-07T13:26:11.433Z,95545.09
2022-09-07T13:28:58.185Z,95537.06
2022-09-07T13:31:37.102Z,95535.41
2022-09-07T13:34:30.096Z,95532.84
2022-09-07T13:36:58.234Z,95529.44
2022-09-07T13:39:25.929Z,95530.59
2022-09-07T13:41:56.598Z,95527.78
2022-09-07T13:44:26.427Z,95529.13
2022-09-07T13:47:02.665Z,95526.91
2022-09-07T13:49:38.572Z,95520.66
2022-09-07T13:52:24.570Z,95507.09
2022-09-07T13:55:09.533Z,95508.34
2022-09-07T13:58:04.067Z,95502.25
2022-09-07T14:00:31.364Z,95504.81
2022-09-07T14:03:04.973Z,95508.47
2022-09-07T14:05:31.589Z,95505.03
2022-09-07T14:07:58.366Z,95511.72
2022-09-07T14:10:26.727Z,95495.75
2022-09-07T14:13:06.135Z,95500.63
2022-09-07T14:15:42.692Z,95500.56
2022-09-07T14:18:19.562Z,95495.25
2022-09-07T14:20:49.963Z,95500.44
2022-09-07T14:23:30.119Z,95490.66
2022-09-07T14:26:20.294Z,95490.25
2022-09-07T14:28:49.323Z,95489.31
2022-09-07T14:31:22.146Z,95495.00
2022-09-07T14:34:10.599Z,95496.66
2022-09-07T14:36:45.800Z,95487.63
2022-09-07T14:39:23.914Z,95485.97
2022-09-07T14:41:52.875Z,95490.13
2022-09-07T14:44:49.460Z,95476.56
2022-09-07T14:47:29.207Z,95481.28
2022-09-07T14:50:10.788Z,95480.41
2022-09-07T14:53:33.399Z,95479.91
2022-09-07T14:55:38.193Z,95484.78
2022-09-07T14:58:22.965Z,95483.44
2022-09-07T15:04:01.531Z,95483.28
2022-09-07T15:09:34.750Z,95488.47
2022-09-07T15:12:18.868Z,95477.25
2022-09-07T15:14:50.444Z,95470.25
2022-09-07T15:17:47.827Z,95469.91
2022-09-07T15:20:39.702Z,95462.19
2022-09-07T15:23:14.882Z,95466.19
2022-09-07T15:25:45.402Z,95474.91
2022-09-07T15:34:12.001Z,95461.03
2022-09-07T15:36:46.754Z,95459.84
2022-09-07T15:39:25.327Z,95456.00
2022-09-07T15:41:52.945Z,95452.47
2022-09-07T15:44:24.899Z,95449.53
2022-09-07T15:49:50.060Z,95439.31
2022-09-07T15:52:38.731Z,95432.94
2022-09-07T15:55:10.515Z,95428.41
2022-09-07T15:58:11.786Z,95423.53
2022-09-07T16:00:43.397Z,95419.59
2022-09-07T16:03:14.849Z,95430.78
2022-09-07T16:05:47.414Z,95424.63
2022-09-07T16:08:26.160Z,95424.56
2022-09-07T16:11:05.476Z,95423.09
2022-09-07T16:13:35.138Z,95414.06
2022-09-07T16:16:15.678Z,95409.38
2022-09-07T16:18:47.764Z,95411.41
2022-09-07T16:21:17.641Z,95412.72
2022-09-07T16:23:53.184Z,95413.38
2022-09-07T16:26:24.582Z,95417.56
2022-09-07T16:28:53.987Z,95415.72
2022-09-07T16:32:43.936Z,95413.84
2022-09-07T16:34:41.689Z,95413.16
2022-09-07T16:37:19.741Z,95421.63
2022-09-07T16:40:01.576Z,95421.16
2022-09-07T16:42:37.482Z,95417.94
2022-09-07T16:47:56.014Z,95434.91
2022-09-07T16:50:24.500Z,95436.38
2022-09-07T16:52:52.991Z,95424.53
2022-09-07T16:55:21.357Z,95424.13
2022-09-07T17:00:36.963Z,95453.53
2022-09-07T17:03:27.375Z,95469.94
2022-09-07T17:05:54.565Z,95467.47
2022-09-07T17:12:53.771Z,95470.28
2022-09-07T17:15:35.866Z,95470.72
2022-09-07T17:27:35.181Z,95457.03
2022-09-07T17:31:08.660Z,95455.34
2022-09-07T17:34:03.330Z,95468.09
2022-09-07T17:37:06.185Z,95472.19
2022-09-07T17:43:46.187Z,95458.31
2022-09-07T17:47:08.489Z,95454.75
2022-09-07T17:49:59.924Z,95456.41
2022-09-07T17:52:45.974Z,95456.13
2022-09-07T17:55:35.997Z,95452.69
2022-09-07T17:58:13.010Z,95463.47
2022-09-07T18:00:50.944Z,95473.47
2022-09-07T18:03:22.164Z,95475.59
2022-09-07T18:06:02.712Z,95489.72
2022-09-07T18:08:32.183Z,95498.13
2022-09-07T18:14:17.840Z,95493.78
2022-09-07T18:16:51.492Z,95488.84
2022-09-07T18:19:26.985Z,95490.88
2022-09-07T18:21:53.966Z,95493.69
2022-09-07T18:24:23.295Z,95494.75
2022-09-07T18:26:53.001Z,95500.06
2022-09-07T18:29:32.962Z,95498.06
2022-09-07T18:32:08.444Z,95500.94
2022-09-07T18:34:41.382Z,95499.41
2022-09-07T18:37:13.223Z,95500.09
2022-09-07T18:39:43.043Z,95502.47
2022-09-07T18:42:11.772Z,95493.63
2022-09-07T18:47:31.716Z,95504.28
2022-09-07T18:50:03.527Z,95484.78
2022-09-07T18:55:23.994Z,95505.34
2022-09-07T18:57:51.370Z,95503.28
2022-09-07T19:00:19.019Z,95502.88
2022-09-07T19:02:50.424Z,95496.81
2022-09-07T19:08:09.094Z,95507.25
2022-09-07T19:10:38.094Z,95511.47
2022-09-07T19:13:05.838Z,95519.84
2022-09-07T19:15:37.069Z,95520.13
2022-09-07T19:18:05.868Z,95525.59
2022-09-07T19:20:34.822Z,95517.88
2022-09-07T19:23:03.553Z,95515.00
2022-09-07T19:25:31.357Z,95514.03
2022-09-07T19:27:59.364Z,95501.47
2022-09-07T19:30:28.374Z,95509.53
2022-09-07T19:32:58.659Z,95512.00
2022-09-07T19:35:30.327Z,95515.78
2022-09-07T19:37:57.984Z,95529.22
2022-09-07T19:40:25.441Z,95530.63
2022-09-07T19:42:55.826Z,95537.63
2022-09-07T19:45:23.621Z,95526.97
2022-09-07T19:47:51.215Z,95517.19
2022-09-07T19:50:21.173Z,95512.84
2022-09-07T19:52:49.294Z,95510.75
2022-09-07T19:55:32.431Z,95497.00
2022-09-07T19:58:38.099Z,95494.81
2022-09-07T20:01:14.143Z,95486.66
2022-09-07T20:03:43.772Z,95482.09
2022-09-07T20:06:16.681Z,95469.59
2022-09-07T20:08:44.883Z,95471.97
2022-09-07T20:11:14.742Z,95469.50
2022-09-07T20:13:45.070Z,95450.59
2022-09-07T20:16:17.059Z,95438.31
2022-09-07T20:18:46.253Z,95433.84
2022-09-07T20:21:17.112Z,95421.75
2022-09-07T20:23:46.749Z,95426.81
2022-09-07T20:26:19.724Z,95423.19
2022-09-07T20:28:47.587Z,95410.47
2022-09-07T20:31:18.539Z,95408.63
2022-09-07T20:33:57.795Z,95403.91
2022-09-07T20:36:26.083Z,95403.34
2022-09-07T20:38:56.300Z,95399.97
2022-09-07T20:41:31.535Z,95403.19
2022-09-07T20:44:00.764Z,95403.31
2022-09-07T20:46:29.804Z,95405.84
2022-09-07T20:48:57.194Z,95408.63
2022-09-07T20:51:24.267Z,95413.66
2022-09-07T20:53:53.519Z,95411.59
2022-09-07T20:56:26.073Z,95411.16
2022-09-07T20:59:06.943Z,95413.00
2022-09-07T21:01:35.310Z,95425.28
2022-09-07T21:04:02.888Z,95432.69
2022-09-07T21:06:31.306Z,95426.94
2022-09-07T21:08:58.946Z,95429.34
2022-09-07T21:11:34.671Z,95428.50
2022-09-07T21:14:03.254Z,95430.72
2022-09-07T21:16:30.334Z,95426.66
2022-09-07T21:19:00.119Z,95437.94
2022-09-07T21:21:29.091Z,95436.28
2022-09-07T21:24:01.606Z,95441.47
2022-09-07T21:26:36.186Z,95441.47
2022-09-07T21:29:05.252Z,95444.69
2022-09-07T21:31:36.104Z,95461.47
2022-09-07T21:34:06.418Z,95457.56
2022-09-07T21:36:34.411Z,95456.91
2022-09-07T21:39:01.986Z,95456.78
2022-09-07T21:41:29.757Z,95451.16
2022-09-07T21:44:04.934Z,95449.72
2022-09-07T21:46:34.083Z,95441.38
2022-09-07T21:49:00.959Z,95436.44
2022-09-07T21:51:28.287Z,95424.16
2022-09-07T21:53:58.645Z,95417.88
2022-09-07T21:56:26.886Z,95420.38
2022-09-07T21:58:55.574Z,95407.25
2022-09-07T22:01:28.509Z,95395.50
2022-09-07T22:04:01.259Z,95387.59
2022-09-07T22:06:32.890Z,95381.47
2022-09-07T22:09:00.653Z,95382.28
2022-09-07T22:11:29.334Z,95380.75
2022-09-07T22:14:02.893Z,95370.88
2022-09-07T22:16:31.086Z,95370.91
2022-09-07T22:18:59.058Z,95365.31
2022-09-07T22:21:27.939Z,95362.53
2022-09-07T22:24:00.921Z,95357.78
2022-09-07T22:26:31.996Z,95354.88
2022-09-07T22:28:59.760Z,95357.63
2022-09-07T22:31:32.369Z,95354.84
2022-09-07T22:34:01.462Z,95352.28
2022-09-07T22:36:30.491Z,95355.78
2022-09-07T22:39:00.131Z,95352.53
2022-09-07T22:41:33.068Z,95352.06
2022-09-07T22:44:00.858Z,95363.94
2022-09-07T22:46:30.240Z,95379.16
2022-09-07T22:49:18.105Z,95390.78
2022-09-07T22:51:52.087Z,95409.97
2022-09-07T22:54:20.714Z,95413.81
2022-09-07T22:56:47.560Z,95422.28
2022-09-07T22:59:14.240Z,95423.09
2022-09-07T23:01:41.264Z,95413.25
2022-09-07T23:04:09.745Z,95416.72
2022-09-07T23:06:38.799Z,95408.72
2022-09-07T23:09:08.942Z,95399.22
2022-09-07T23:11:35.832Z,95395.44
2022-09-07T23:14:05.501Z,95396.00
2022-09-07T23:16:32.191Z,95389.25
2022-09-07T23:18:59.844Z,95374.94
2022-09-07T23:21:27.430Z,95357.38
2022-09-07T23:23:57.452Z,95354.00
2022-09-07T23:26:28.431Z,95339.88
2022-09-07T23:28:57.778Z,95328.09
2022-09-07T23:31:25.911Z,95310.38
2022-09-07T23:33:52.599Z,95308.47
2022-09-07T23:36:19.203Z,95304.72
2022-09-07T23:38:46.265Z,95296.03
2022-09-07T23:41:17.840Z,95290.28
2022-09-07T23:43:44.718Z,95259.06
2022-09-07T23:46:12.982Z,95245.06
2022-09-07T23:48:39.736Z,95236.16
2022-09-07T23:51:06.473Z,95225.53
2022-09-07T23:53:33.170Z,95222.44
2022-09-07T23:56:00.150Z,95221.22
2022-09-07T23:58:26.729Z,95207.94
